createdAt,value
2023-05-08T00:07:08.699Z,15.1
2023-05-08T00:20:08.726Z,15.1
2023-05-08T00:33:08.744Z,15.4
2023-05-08T00:46:08.729Z,15.4
2023-05-08T00:59:08.733Z,14.8
2023-05-08T01:12:08.750Z,14.4
2023-05-08T01:25:08.772Z,14.3
2023-05-08T01:38:08.781Z,14.5
2023-05-08T01:51:08.809Z,14.6
2023-05-08T02:04:08.913Z,14.5
2023-05-08T02:17:08.870Z,14.6
2023-05-08T02:30:08.852Z,14.6
2023-05-08T02:43:08.878Z,14.5
2023-05-08T02:56:08.914Z,14.5
2023-05-08T03:09:08.899Z,14.5
2023-05-08T03:22:08.922Z,14.5
2023-05-08T03:35:08.950Z,14.5
2023-05-08T03:48:09.104Z,14.5
2023-05-08T04:02:09.081Z,14.5
2023-05-08T04:20:09.113Z,14.6
2023-05-08T04:38:09.115Z,14.4
2023-05-08T04:52:09.189Z,14.3
2023-05-08T05:06:09.195Z,14.3
2023-05-08T05:20:09.254Z,14.4
2023-05-08T05:41:09.194Z,14.5
2023-05-08T05:55:09.189Z,14.4
2023-05-08T06:09:09.196Z,14.7
2023-05-08T06:23:09.185Z,14.9
2023-05-08T06:37:09.212Z,14.9
2023-05-08T06:51:09.178Z,15.2
2023-05-08T07:05:09.212Z,15.3
2023-05-08T07:19:09.229Z,15.9
2023-05-08T07:33:09.222Z,16.7
2023-05-08T07:47:09.296Z,17.9
2023-05-08T08:01:09.601Z,19.2
2023-05-08T08:15:09.222Z,20.4
2023-05-08T08:29:09.221Z,19.4
2023-05-08T08:43:09.247Z,19.7
2023-05-08T08:55:09.228Z,21.1
2023-05-08T09:33:09.291Z,19.5
2023-05-08T09:53:09.251Z,18.6
2023-05-08T10:07:09.255Z,18.7
2023-05-08T10:21:09.262Z,18.9
2023-05-08T10:36:09.277Z,19.5
2023-05-08T11:24:09.273Z,20.4
2023-05-08T11:38:09.310Z,20.4
2023-05-08T12:20:09.301Z,20.8
2023-05-08T12:42:09.329Z,20.1
2023-05-08T12:56:09.322Z,20.0
2023-05-08T13:18:09.360Z,20.1
2023-05-08T14:13:09.406Z,20.7
2023-05-08T14:40:09.339Z,21.2
2023-05-08T14:54:09.547Z,21.4
2023-05-08T15:37:09.379Z,20.6
2023-05-08T15:51:09.380Z,20.7
2023-05-08T16:25:09.395Z,19.3
2023-05-08T16:39:09.395Z,19.0
2023-05-08T17:08:09.455Z,17.8
2023-05-08T17:23:09.410Z,17.6
2023-05-08T17:39:09.404Z,17.4
2023-05-08T17:53:09.410Z,17.0
2023-05-08T18:08:09.590Z,16.9
2023-05-08T18:22:09.454Z,17.1
2023-05-08T18:36:09.450Z,17.1
2023-05-08T18:51:09.436Z,16.9
2023-05-08T19:05:09.442Z,16.8
2023-05-08T19:18:09.490Z,16.5
2023-05-08T19:37:09.461Z,16.4
2023-05-08T19:50:09.468Z,16.2
2023-05-08T20:03:09.531Z,16.1
2023-05-08T20:42:09.479Z,15.9
2023-05-08T21:05:09.579Z,15.7
2023-05-08T21:18:09.505Z,15.6
2023-05-08T21:31:09.529Z,15.5
2023-05-08T21:44:09.511Z,15.5
2023-05-08T21:57:09.522Z,15.3
2023-05-08T22:10:09.550Z,15.4
2023-05-08T22:23:09.530Z,15.4
2023-05-08T22:38:09.531Z,15.4
2023-05-08T22:51:09.533Z,15.4
2023-05-08T23:04:09.590Z,15.3
2023-05-08T23:17:09.589Z,15.2
2023-05-08T23:30:09.546Z,15.1
2023-05-08T23:43:09.549Z,15.0
2023-05-08T23:56:09.551Z,15.1
